Umpqua, Oregon
Current Conditions -  °F | °C
As of 9:53 AM on Thursday 27 Nov 2014 (Local Time) from KRBG Reporting Station
Light Rain Light Rain  
Wind Chill: 52°   Ceiling: 9000
Heat Index: 52°   Visibility: 5mi
Dew Point: 49°   Wind: 0mph
Humidity: 89%   Direction: NA
Pressure: 30.03"   Gusts: NA
Location:  43.37°N, 123.47°W
Report Text: KRBG 271753Z AUTO 00000KT 5SM -RA BR SCT060 OVC090 11/09 A3003 RMK AO2 SLP170 P0005 60013 T01110094 10111 20094 50010 TSNO
Loading
Personal Weather Stations






























Interactive Weather Map New forecast layout! Learn more

10-Day Weather Forecast

Advertisements
Track Severe Weather on mobile